Time;durP1;ratioP1;P1;durP2;ratioP2;P2;SDS_P1;SDS_P2;PMS_P1;PMS_P2;Temp;Humidity;BMP_temperature;BMP_pressure;BME280_temperature;BME280_humidity;BME280_pressure;Samples;Min_cycle;Max_cycle;Signal;HPM_P1;HPM_P2
2023/11/10 00:01:42;;;;;;;;;;;20.50;67.30;;;;;;1497536;78;1148;-60
2023/11/10 00:03:44;;;;;;;;;;;20.60;67.40;;;;;;1500991;78;615;-60
2023/11/10 00:05:46;;;;;;;;;;;20.50;67.50;;;;;;1492884;78;1927;-59
2023/11/10 00:07:49;;;;;;;;;;;20.50;67.60;;;;;;1504212;78;754;-60
2023/11/10 00:09:51;;;;;;;;;;;20.50;67.60;;;;;;1485512;78;1618;-59
2023/11/10 00:11:54;;;;;;;;;;;20.50;67.60;;;;;;1498502;78;1168;-54
2023/11/10 00:13:56;;;;;;;;;;;20.50;67.60;;;;;;1489307;78;812;-58
2023/11/10 00:15:58;;;;;;;;;;;20.60;67.50;;;;;;1496714;78;749;-57
2023/11/10 00:18:01;;;;;;;;;;;20.60;67.40;;;;;;1496621;78;743;-58
2023/11/10 00:20:04;;;;;;;;;;;20.60;67.40;;;;;;1488009;78;706;-59
2023/11/10 00:22:06;;;;;;;;;;;20.50;67.40;;;;;;1494762;78;1153;-59
2023/11/10 00:24:08;;;;;;;;;;;20.50;67.50;;;;;;1492845;78;1670;-59
2023/11/10 00:26:11;;;;;;;;;;;20.50;67.60;;;;;;1490462;78;1945;-59
2023/11/10 00:28:13;;;;;;;;;;;20.50;67.60;;;;;;1501367;78;1873;-59
2023/11/10 00:30:15;;;;;;;;;;;20.60;67.50;;;;;;1493012;78;846;-60
2023/11/10 00:32:17;;;;;;;;;;;20.50;67.30;;;;;;1501558;78;1142;-59
2023/11/10 00:34:19;;;;;;;;;;;20.50;67.40;;;;;;1492437;78;720;-59
2023/11/10 00:36:23;;;;;;;;;;;20.60;67.30;;;;;;1496780;78;1574;-59
2023/11/10 00:38:26;;;;;;;;;;;20.50;67.20;;;;;;1486158;78;826;-60
2023/11/10 00:40:27;;;;;;;;;;;20.50;67.10;;;;;;1491346;78;784;-60
2023/11/10 00:42:30;;;;;;;;;;;20.50;67.10;;;;;;1492105;78;1105;-59
2023/11/10 00:44:32;;;;;;;;;;;20.60;67.10;;;;;;1493314;78;740;-59
2023/11/10 00:46:34;;;;;;;;;;;20.50;67.20;;;;;;1500836;78;1919;-59
2023/11/10 00:48:38;;;;;;;;;;;20.50;67.20;;;;;;1497148;78;762;-58
2023/11/10 00:50:40;;;;;;;;;;;20.50;67.20;;;;;;1489104;78;1537;-59
2023/11/10 00:52:42;;;;;;;;;;;20.50;67.30;;;;;;1484423;78;1153;-59
2023/11/10 00:54:44;;;;;;;;;;;20.50;67.40;;;;;;1494967;78;785;-60
2023/11/10 00:56:46;;;;;;;;;;;20.50;67.40;;;;;;1498805;78;711;-60
2023/11/10 00:58:47;;;;;;;;;;;20.60;67.40;;;;;;1497114;78;701;-60
2023/11/10 01:00:50;;;;;;;;;;;20.60;67.50;;;;;;1492211;78;759;-59
2023/11/10 01:02:54;;;;;;;;;;;20.50;67.70;;;;;;1492203;78;1134;-58
2023/11/10 01:04:55;;;;;;;;;;;20.50;68.00;;;;;;1494239;78;1687;-59
2023/11/10 01:06:57;;;;;;;;;;;20.50;68.30;;;;;;1486695;78;1952;-58
2023/11/10 01:08:59;;;;;;;;;;;20.60;68.30;;;;;;1495723;78;896;-59
2023/11/10 01:11:01;;;;;;;;;;;20.50;68.40;;;;;;1502238;78;729;-59
2023/11/10 01:13:06;;;;;;;;;;;20.50;68.50;;;;;;1488593;78;1145;-60
2023/11/10 01:15:08;;;;;;;;;;;20.50;68.50;;;;;;1499024;78;835;-60
2023/11/10 01:17:10;;;;;;;;;;;20.60;68.60;;;;;;1495927;78;827;-59
2023/11/10 01:19:13;;;;;;;;;;;20.60;68.60;;;;;;1497068;78;1582;-60
2023/11/10 01:21:15;;;;;;;;;;;20.50;68.70;;;;;;1498197;78;746;-59
2023/11/10 01:23:17;;;;;;;;;;;20.60;68.70;;;;;;1490358;78;1165;-59
2023/11/10 01:25:19;;;;;;;;;;;20.60;68.40;;;;;;1495865;78;788;-59
2023/11/10 01:27:21;;;;;;;;;;;20.50;68.40;;;;;;1492470;78;1928;-59
2023/11/10 01:29:23;;;;;;;;;;;20.60;68.40;;;;;;1490708;78;739;-59
2023/11/10 01:31:25;;;;;;;;;;;20.50;68.30;;;;;;1489196;78;719;-58
2023/11/10 01:33:27;;;;;;;;;;;20.50;68.30;;;;;;1487106;78;1539;-58
2023/11/10 01:35:28;;;;;;;;;;;20.60;68.30;;;;;;1493498;78;730;-56
2023/11/10 01:37:30;;;;;;;;;;;20.60;68.30;;;;;;1497197;78;774;-56
2023/11/10 01:39:34;;;;;;;;;;;20.50;68.20;;;;;;1494711;78;680;-56
2023/11/10 01:41:39;;;;;;;;;;;20.60;68.40;;;;;;1491540;78;1628;-60
2023/11/10 01:43:41;;;;;;;;;;;20.50;68.20;;;;;;1502355;78;743;-59
2023/11/10 01:45:47;;;;;;;;;;;20.50;68.20;;;;;;1495660;78;684;-59
2023/11/10 01:47:47;;;;;;;;;;;20.50;68.30;;;;;;1487227;78;1934;-58
2023/11/10 01:49:49;;;;;;;;;;;20.50;68.20;;;;;;1492015;78;725;-58
2023/11/10 01:51:51;;;;;;;;;;;20.50;68.30;;;;;;1505398;78;1164;-59
2023/11/10 01:53:53;;;;;;;;;;;20.60;68.00;;;;;;1490985;78;686;-59
2023/11/10 01:55:55;;;;;;;;;;;20.50;67.90;;;;;;1490483;78;818;-59
2023/11/10 01:57:57;;;;;;;;;;;20.50;67.80;;;;;;1499476;78;730;-59
2023/11/10 02:00:01;;;;;;;;;;;20.60;67.70;;;;;;1500485;78;713;-58
2023/11/10 02:02:07;;;;;;;;;;;20.50;67.60;;;;;;1496440;78;1522;-59
2023/11/10 02:04:12;;;;;;;;;;;20.50;67.50;;;;;;1501895;78;703;-59
2023/11/10 02:06:15;;;;;;;;;;;20.50;67.50;;;;;;1505713;78;1929;-59
2023/11/10 02:08:17;;;;;;;;;;;20.50;67.40;;;;;;1491767;78;743;-55
2023/11/10 02:10:19;;;;;;;;;;;20.50;67.40;;;;;;1494717;78;714;-56
2023/11/10 02:12:21;;;;;;;;;;;20.50;67.40;;;;;;1498538;78;1080;-56
2023/11/10 02:14:23;;;;;;;;;;;20.50;67.30;;;;;;1490534;78;817;-55
2023/11/10 02:16:25;;;;;;;;;;;20.50;67.30;;;;;;1501625;78;1613;-59
2023/11/10 02:18:27;;;;;;;;;;;20.50;67.20;;;;;;1485444;78;698;-57
2023/11/10 02:20:29;;;;;;;;;;;20.50;67.20;;;;;;1486499;78;721;-57
2023/11/10 02:22:30;;;;;;;;;;;20.50;67.20;;;;;;1496908;78;1211;-57
2023/11/10 02:24:32;;;;;;;;;;;20.50;67.20;;;;;;1500430;78;736;-59
2023/11/10 02:26:35;;;;;;;;;;;20.50;67.10;;;;;;1501341;78;1933;-59
2023/11/10 02:28:38;;;;;;;;;;;20.60;67.10;;;;;;1497505;78;711;-59
2023/11/10 02:30:40;;;;;;;;;;;20.50;67.10;;;;;;1498694;78;1554;-59
2023/11/10 02:32:43;;;;;;;;;;;20.50;67.10;;;;;;1490716;78;1160;-59
2023/11/10 02:34:45;;;;;;;;;;;20.50;67.10;;;;;;1500441;78;745;-55
2023/11/10 02:36:47;;;;;;;;;;;20.50;67.20;;;;;;1494698;78;681;-55
2023/11/10 02:38:50;;;;;;;;;;;20.50;67.20;;;;;;1500867;78;731;-55
2023/11/10 02:40:52;;;;;;;;;;;20.50;67.40;;;;;;1493192;78;731;-58
2023/11/10 02:42:54;;;;;;;;;;;20.60;67.60;;;;;;1497732;78;1510;-59
2023/11/10 02:44:56;;;;;;;;;;;20.60;67.60;;;;;;1493861;78;676;-59
2023/11/10 02:46:57;;;;;;;;;;;20.50;67.60;;;;;;1503877;78;1932;-59
2023/11/10 02:48:59;;;;;;;;;;;20.50;67.60;;;;;;1496977;78;829;-59
2023/11/10 02:51:01;;;;;;;;;;;20.50;67.60;;;;;;1499657;78;756;-58
2023/11/10 02:53:03;;;;;;;;;;;20.50;67.60;;;;;;1491803;78;1066;-58
2023/11/10 02:55:05;;;;;;;;;;;20.50;67.60;;;;;;1506420;78;740;-59
2023/11/10 02:57:08;;;;;;;;;;;20.50;67.60;;;;;;1492478;78;1509;-59
2023/11/10 02:59:10;;;;;;;;;;;20.50;67.80;;;;;;1493467;78;709;-58
2023/11/10 03:01:14;;;;;;;;;;;20.50;67.60;;;;;;1493195;78;740;-58
2023/11/10 03:03:16;;;;;;;;;;;20.60;67.60;;;;;;1491376;78;1155;-58
2023/11/10 03:05:18;;;;;;;;;;;20.60;67.60;;;;;;1488319;78;839;-58
2023/11/10 03:07:20;;;;;;;;;;;20.50;67.80;;;;;;1493659;78;1942;-59
2023/11/10 03:09:23;;;;;;;;;;;20.50;67.90;;;;;;1494629;78;722;-57
2023/11/10 03:11:25;;;;;;;;;;;20.50;67.80;;;;;;1496121;78;1508;-59
2023/11/10 03:13:27;;;;;;;;;;;20.50;67.90;;;;;;1489218;78;1074;-59
2023/11/10 03:15:29;;;;;;;;;;;20.50;68.00;;;;;;1492932;78;747;-59
2023/11/10 03:17:31;;;;;;;;;;;20.50;68.00;;;;;;1491163;78;627;-59
2023/11/10 03:19:33;;;;;;;;;;;20.50;68.00;;;;;;1501110;78;728;-58
2023/11/10 03:21:35;;;;;;;;;;;20.60;68.00;;;;;;1498642;78;1134;-57
2023/11/10 03:23:37;;;;;;;;;;;20.50;68.00;;;;;;1490970;78;687;-58
2023/11/10 03:25:39;;;;;;;;;;;20.50;68.00;;;;;;1498346;78;1506;-58
2023/11/10 03:27:41;;;;;;;;;;;20.50;68.20;;;;;;1490765;78;1920;-58
2023/11/10 03:29:43;;;;;;;;;;;20.50;68.10;;;;;;1502694;78;809;-58
2023/11/10 03:31:45;;;;;;;;;;;20.50;68.10;;;;;;1495755;78;1101;-58
2023/11/10 03:33:46;;;;;;;;;;;20.50;68.00;;;;;;1490912;78;833;-58
2023/11/10 03:35:48;;;;;;;;;;;20.50;68.10;;;;;;1500761;78;680;-59
2023/11/10 03:37:50;;;;;;;;;;;20.50;68.20;;;;;;1496470;78;736;-58
2023/11/10 03:39:52;;;;;;;;;;;20.50;68.30;;;;;;1487948;78;1541;-59
2023/11/10 03:41:59;;;;;;;;;;;20.50;68.30;;;;;;1490538;78;1113;-59
2023/11/10 03:43:57;;;;;;;;;;;20.50;68.30;;;;;;1505075;78;1586;-59
2023/11/10 03:45:59;;;;;;;;;;;20.60;68.20;;;;;;1495318;78;776;-59
2023/11/10 03:48:01;;;;;;;;;;;20.60;68.30;;;;;;1502027;78;1924;-58
2023/11/10 03:50:03;;;;;;;;;;;20.50;68.10;;;;;;1501064;78;788;-58
2023/11/10 03:52:06;;;;;;;;;;;20.50;68.10;;;;;;1488054;78;1149;-58
2023/11/10 03:54:08;;;;;;;;;;;20.60;68.00;;;;;;1494996;78;1511;-58
2023/11/10 03:56:10;;;;;;;;;;;20.60;68.00;;;;;;1505580;78;705;-59
2023/11/10 03:58:12;;;;;;;;;;;20.50;68.00;;;;;;1499189;78;781;-58
2023/11/10 04:00:15;;;;;;;;;;;20.60;68.00;;;;;;1490390;78;900;-58
2023/11/10 04:02:17;;;;;;;;;;;20.50;68.00;;;;;;1486972;78;1115;-59
2023/11/10 04:04:19;;;;;;;;;;;20.50;68.00;;;;;;1491491;78;867;-58
2023/11/10 04:06:20;;;;;;;;;;;20.60;68.00;;;;;;1491709;78;812;-59
2023/11/10 04:08:22;;;;;;;;;;;20.60;67.90;;;;;;1490467;78;1950;-56
2023/11/10 04:10:26;;;;;;;;;;;20.60;67.80;;;;;;1488631;78;711;-58
2023/11/10 04:12:28;;;;;;;;;;;20.60;67.90;;;;;;1493739;78;2044;-58
2023/11/10 04:14:30;;;;;;;;;;;20.60;67.70;;;;;;1490008;78;779;-58
2023/11/10 04:16:31;;;;;;;;;;;20.50;67.60;;;;;;1492994;78;732;-60
2023/11/10 04:18:35;;;;;;;;;;;20.60;67.60;;;;;;1487781;78;674;-58
2023/11/10 04:20:37;;;;;;;;;;;20.60;67.70;;;;;;1504338;78;706;-59
2023/11/10 04:22:41;;;;;;;;;;;20.50;67.60;;;;;;1494197;78;1575;-59
2023/11/10 04:24:43;;;;;;;;;;;20.50;67.60;;;;;;1488854;78;1697;-59
2023/11/10 04:26:45;;;;;;;;;;;20.50;67.50;;;;;;1491102;78;675;-58
2023/11/10 04:28:47;;;;;;;;;;;20.50;67.40;;;;;;1487415;78;1892;-59
2023/11/10 04:30:49;;;;;;;;;;;20.50;67.40;;;;;;1488653;78;733;-59
2023/11/10 04:32:52;;;;;;;;;;;20.50;67.30;;;;;;1486628;78;1149;-59
2023/11/10 04:34:54;;;;;;;;;;;20.50;67.20;;;;;;1489598;78;813;-59
2023/11/10 04:36:57;;;;;;;;;;;20.50;67.30;;;;;;1495323;78;1570;-59
2023/11/10 04:38:58;;;;;;;;;;;20.50;67.30;;;;;;1496684;78;864;-58
2023/11/10 04:41:02;;;;;;;;;;;20.50;67.20;;;;;;1498727;78;630;-59
2023/11/10 04:43:05;;;;;;;;;;;20.50;67.20;;;;;;1490686;78;2068;-58
2023/11/10 04:45:08;;;;;;;;;;;20.50;67.10;;;;;;1491007;78;674;-59
2023/11/10 04:47:11;;;;;;;;;;;20.50;67.10;;;;;;1492330;78;1906;-58
2023/11/10 04:49:13;;;;;;;;;;;20.50;67.00;;;;;;1487812;78;603;-59
2023/11/10 04:51:16;;;;;;;;;;;20.50;67.20;;;;;;1489532;78;1586;-60
2023/11/10 04:53:20;;;;;;;;;;;20.60;67.40;;;;;;1495362;78;1144;-59
2023/11/10 04:55:22;;;;;;;;;;;20.50;67.30;;;;;;1498025;78;822;-59
2023/11/10 04:57:26;;;;;;;;;;;20.50;67.30;;;;;;1498631;78;735;-58
2023/11/10 04:59:28;;;;;;;;;;;20.60;67.30;;;;;;1490670;78;654;-58
2023/11/10 05:01:32;;;;;;;;;;;20.50;67.20;;;;;;1487973;78;1144;-60
2023/11/10 05:03:34;;;;;;;;;;;20.50;67.70;;;;;;1486072;78;1565;-57
2023/11/10 05:05:36;;;;;;;;;;;20.60;68.00;;;;;;1495208;78;742;-57
2023/11/10 05:07:37;;;;;;;;;;;20.50;68.30;;;;;;1490577;78;1900;-59
2023/11/10 05:09:39;;;;;;;;;;;20.50;68.40;;;;;;1489637;78;693;-59
2023/11/10 05:11:41;;;;;;;;;;;20.60;68.70;;;;;;1488735;78;1153;-56
2023/11/10 05:13:43;;;;;;;;;;;20.60;68.70;;;;;;1493391;78;755;-61
2023/11/10 05:15:45;;;;;;;;;;;20.60;69.10;;;;;;1488277;78;715;-60
2023/11/10 05:17:47;;;;;;;;;;;20.60;68.90;;;;;;1491531;78;1394;-59
2023/11/10 05:19:49;;;;;;;;;;;20.50;68.90;;;;;;1491687;78;725;-61
2023/11/10 05:21:51;;;;;;;;;;;20.50;69.00;;;;;;1491096;78;1187;-61
2023/11/10 05:23:53;;;;;;;;;;;20.50;68.20;;;;;;1490097;78;673;-61
2023/11/10 05:25:55;;;;;;;;;;;20.60;67.70;;;;;;1490679;78;671;-61
2023/11/10 05:27:57;;;;;;;;;;;20.50;68.30;;;;;;1495881;78;1919;-62
2023/11/10 05:29:59;;;;;;;;;;;20.50;68.30;;;;;;1494194;78;711;-61
2023/11/10 05:32:01;;;;;;;;;;;20.50;68.20;;;;;;1492150;78;1459;-61
2023/11/10 05:34:04;;;;;;;;;;;20.50;68.00;;;;;;1495448;78;762;-60
2023/11/10 05:36:06;;;;;;;;;;;20.50;67.90;;;;;;1496806;78;824;-62
2023/11/10 05:38:08;;;;;;;;;;;20.50;67.80;;;;;;1494409;78;793;-61
2023/11/10 05:40:10;;;;;;;;;;;20.60;67.70;;;;;;1493173;78;780;-61
2023/11/10 05:42:13;;;;;;;;;;;20.50;67.50;;;;;;1483064;78;1150;-60
2023/11/10 05:44:15;;;;;;;;;;;20.60;66.80;;;;;;1496162;78;759;-59
2023/11/10 05:46:17;;;;;;;;;;;20.40;49.80;;;;;;1502050;78;1607;-61
2023/11/10 05:48:19;;;;;;;;;;;19.90;45.20;;;;;;1498661;78;1949;-61
2023/11/10 05:50:21;;;;;;;;;;;19.50;43.90;;;;;;1493959;78;698;-60
2023/11/10 05:52:23;;;;;;;;;;;19.00;44.50;;;;;;1489731;78;1145;-60
2023/11/10 05:54:26;;;;;;;;;;;18.80;44.40;;;;;;1493161;78;733;-61
2023/11/10 05:56:27;;;;;;;;;;;18.50;42.60;;;;;;1494749;78;727;-61
2023/11/10 05:58:29;;;;;;;;;;;18.20;43.00;;;;;;1492612;78;804;-60
2023/11/10 06:00:32;;;;;;;;;;;18.00;43.10;;;;;;1498913;78;1575;-61
2023/11/10 06:02:35;;;;;;;;;;;17.80;43.60;;;;;;1502226;78;1104;-61
2023/11/10 06:04:37;;;;;;;;;;;17.60;43.50;;;;;;1492391;78;680;-59
2023/11/10 06:06:39;;;;;;;;;;;17.50;45.00;;;;;;1496025;78;695;-57
2023/11/10 06:08:40;;;;;;;;;;;17.40;47.70;;;;;;1499455;78;1946;-59
2023/11/10 06:10:43;;;;;;;;;;;17.70;51.00;;;;;;1500886;78;717;-60
2023/11/10 06:12:45;;;;;;;;;;;17.80;53.70;;;;;;1491806;78;1149;-61
2023/11/10 06:14:47;;;;;;;;;;;18.10;55.30;;;;;;1491596;78;1588;-61
2023/11/10 06:16:49;;;;;;;;;;;18.30;57.20;;;;;;1492706;78;702;-61
2023/11/10 06:18:51;;;;;;;;;;;18.40;57.10;;;;;;1493311;78;735;-60
2023/11/10 06:20:52;;;;;;;;;;;18.50;57.50;;;;;;1495861;78;672;-59
2023/11/10 06:22:54;;;;;;;;;;;18.70;58.00;;;;;;1497389;78;1177;-60
2023/11/10 06:24:56;;;;;;;;;;;18.80;58.10;;;;;;1499571;78;717;-60
2023/11/10 06:26:58;;;;;;;;;;;18.90;58.20;;;;;;1501430;78;631;-58
2023/11/10 06:29:02;;;;;;;;;;;19.00;58.50;;;;;;1496559;78;1939;-56
2023/11/10 06:31:04;;;;;;;;;;;19.00;58.60;;;;;;1490251;78;605;-58
2023/11/10 06:33:06;;;;;;;;;;;19.10;58.90;;;;;;1492877;78;1090;-57
2023/11/10 06:35:09;;;;;;;;;;;19.10;59.10;;;;;;1491105;78;729;-58
2023/11/10 06:37:12;;;;;;;;;;;19.20;59.30;;;;;;1488163;78;693;-59
2023/11/10 06:39:16;;;;;;;;;;;19.20;59.30;;;;;;1491122;78;723;-59
2023/11/10 06:41:18;;;;;;;;;;;19.30;59.40;;;;;;1499889;78;741;-57
2023/11/10 06:43:20;;;;;;;;;;;19.40;59.40;;;;;;1487706;78;1595;-57
2023/11/10 06:45:22;;;;;;;;;;;19.40;59.40;;;;;;1492693;78;725;-55
2023/11/10 06:47:24;;;;;;;;;;;19.40;59.50;;;;;;1498336;78;801;-60
2023/11/10 06:49:26;;;;;;;;;;;19.50;59.60;;;;;;1507497;78;1916;-58
2023/11/10 06:51:29;;;;;;;;;;;19.50;59.60;;;;;;1510250;78;1140;-58
2023/11/10 06:53:31;;;;;;;;;;;19.50;59.60;;;;;;1495564;78;685;-57
2023/11/10 06:55:33;;;;;;;;;;;19.60;59.60;;;;;;1502545;78;700;-57
2023/11/10 06:57:37;;;;;;;;;;;19.60;59.70;;;;;;1491281;78;1592;-58
2023/11/10 06:59:39;;;;;;;;;;;19.60;59.70;;;;;;1492814;78;671;-60
2023/11/10 07:01:42;;;;;;;;;;;19.70;59.80;;;;;;1502654;78;1127;-57
2023/11/10 07:03:45;;;;;;;;;;;19.60;59.80;;;;;;1492324;78;737;-56
2023/11/10 07:05:47;;;;;;;;;;;19.70;59.90;;;;;;1494528;78;728;-59
2023/11/10 07:07:51;;;;;;;;;;;19.60;59.80;;;;;;1499336;78;1946;-60
2023/11/10 07:09:53;;;;;;;;;;;19.70;59.90;;;;;;1497969;78;712;-59
2023/11/10 07:11:54;;;;;;;;;;;19.70;60.00;;;;;;1501707;78;1696;-58
2023/11/10 07:13:56;;;;;;;;;;;19.70;60.00;;;;;;1500040;78;735;-56
2023/11/10 07:15:58;;;;;;;;;;;19.70;60.00;;;;;;1494891;78;741;-58
2023/11/10 07:18:03;;;;;;;;;;;19.80;60.00;;;;;;1499479;78;781;-58
2023/11/10 07:20:05;;;;;;;;;;;19.70;60.00;;;;;;1490996;78;722;-58
2023/11/10 07:22:07;;;;;;;;;;;19.80;60.00;;;;;;1499693;78;1152;-60
2023/11/10 07:24:09;;;;;;;;;;;19.80;60.00;;;;;;1485628;78;1548;-58
2023/11/10 07:26:12;;;;;;;;;;;19.80;59.90;;;;;;1494533;78;704;-61
2023/11/10 07:28:14;;;;;;;;;;;19.80;60.00;;;;;;1499956;78;1909;-59
2023/11/10 07:30:18;;;;;;;;;;;19.80;60.00;;;;;;1492547;78;654;-56
2023/11/10 07:32:20;;;;;;;;;;;19.80;60.00;;;;;;1494283;78;1101;-61
2023/11/10 07:34:21;;;;;;;;;;;19.80;60.00;;;;;;1493015;78;761;-59
2023/11/10 07:36:23;;;;;;;;;;;19.80;60.00;;;;;;1495573;78;768;-55
2023/11/10 07:38:25;;;;;;;;;;;19.90;60.10;;;;;;1487022;78;1837;-59
2023/11/10 07:40:27;;;;;;;;;;;19.90;60.00;;;;;;1491611;78;775;-58
2023/11/10 07:42:29;;;;;;;;;;;19.80;60.00;;;;;;1492832;78;1207;-56
2023/11/10 07:44:31;;;;;;;;;;;19.80;60.00;;;;;;1494266;78;671;-57
2023/11/10 07:46:33;;;;;;;;;;;19.90;60.00;;;;;;1502727;78;695;-55
2023/11/10 07:48:35;;;;;;;;;;;19.80;60.00;;;;;;1488004;78;1942;-57
2023/11/10 07:50:39;;;;;;;;;;;19.90;60.00;;;;;;1469282;79;776;-59
2023/11/10 07:52:41;;;;;;;;;;;19.90;60.00;;;;;;1497474;78;1572;-60
2023/11/10 07:54:44;;;;;;;;;;;19.90;60.00;;;;;;1500142;78;798;-56
2023/11/10 07:56:46;;;;;;;;;;;19.80;59.90;;;;;;1491305;78;760;-58
2023/11/10 07:58:47;;;;;;;;;;;19.90;60.00;;;;;;1490809;78;782;-57
2023/11/10 08:00:49;;;;;;;;;;;19.90;60.00;;;;;;1493845;78;636;-61
2023/11/10 08:02:56;;;;;;;;;;;19.90;60.00;;;;;;1494435;78;1077;-60
2023/11/10 08:04:55;;;;;;;;;;;19.90;59.90;;;;;;1492331;78;1579;-59
2023/11/10 08:06:57;;;;;;;;;;;19.90;60.00;;;;;;1493213;78;1284;-58
2023/11/10 08:09:00;;;;;;;;;;;19.90;59.90;;;;;;1494682;78;1938;-58
2023/11/10 08:11:02;;;;;;;;;;;19.90;59.80;;;;;;1491862;78;825;-57
2023/11/10 08:13:04;;;;;;;;;;;19.90;59.80;;;;;;1493011;78;1160;-57
2023/11/10 08:15:06;;;;;;;;;;;19.90;59.80;;;;;;1488700;78;791;-59
2023/11/10 08:17:08;;;;;;;;;;;19.90;59.70;;;;;;1498879;78;733;-60
2023/11/10 08:19:10;;;;;;;;;;;19.90;59.80;;;;;;1495791;78;730;-58
2023/11/10 08:21:18;;;;;;;;;;;19.90;59.50;;;;;;1491359;78;1555;-59
2023/11/10 08:23:20;;;;;;;;;;;19.90;59.50;;;;;;1494095;78;1118;-59
2023/11/10 08:25:22;;;;;;;;;;;19.90;59.50;;;;;;1488681;78;692;-57
2023/11/10 08:27:24;;;;;;;;;;;19.90;59.50;;;;;;1486733;78;762;-57
2023/11/10 08:29:25;;;;;;;;;;;19.90;59.50;;;;;;1488957;78;1938;-59
2023/11/10 08:31:28;;;;;;;;;;;19.90;59.50;;;;;;1497937;78;856;-59
2023/11/10 08:33:30;;;;;;;;;;;19.90;59.60;;;;;;1491744;78;734;-58
2023/11/10 08:35:33;;;;;;;;;;;19.90;59.60;;;;;;1489511;78;1508;-56
2023/11/10 08:37:35;;;;;;;;;;;20.00;59.70;;;;;;1500112;78;727;-58
2023/11/10 08:39:37;;;;;;;;;;;19.90;59.60;;;;;;1489359;78;686;-58
2023/11/10 08:41:39;;;;;;;;;;;19.90;59.70;;;;;;1491185;78;1134;-59
2023/11/10 08:43:42;;;;;;;;;;;19.90;59.60;;;;;;1491865;78;609;-56
2023/11/10 08:45:44;;;;;;;;;;;20.00;59.70;;;;;;1492847;78;837;-60
2023/11/10 08:47:46;;;;;;;;;;;20.00;59.70;;;;;;1488014;78;766;-60
2023/11/10 08:49:49;;;;;;;;;;;19.90;59.80;;;;;;1490576;78;1928;-59
2023/11/10 08:51:51;;;;;;;;;;;20.00;59.70;;;;;;1491960;78;1158;-58
2023/11/10 08:53:53;;;;;;;;;;;20.00;59.70;;;;;;1492643;78;733;-61
2023/11/10 08:55:57;;;;;;;;;;;19.90;59.80;;;;;;1492182;78;759;-61
2023/11/10 08:57:58;;;;;;;;;;;19.90;59.80;;;;;;1493547;78;1501;-59
2023/11/10 09:00:00;;;;;;;;;;;19.90;59.80;;;;;;1488338;78;863;-59
2023/11/10 09:02:02;;;;;;;;;;;19.90;59.80;;;;;;1492399;78;1131;-56
2023/11/10 09:04:04;;;;;;;;;;;19.90;59.80;;;;;;1490264;78;1486;-59
2023/11/10 09:06:06;;;;;;;;;;;20.00;59.80;;;;;;1490855;78;716;-57
2023/11/10 09:08:27;;;;;;;;;;;19.90;59.80;;;;;;1493362;78;745;-61
2023/11/10 09:10:29;;;;;;;;;;;19.90;59.80;;;;;;1490878;78;1914;-58
2023/11/10 09:12:33;;;;;;;;;;;20.00;59.90;;;;;;1488505;78;1147;-56
2023/11/10 09:14:35;;;;;;;;;;;19.90;59.90;;;;;;1498815;78;704;-59
2023/11/10 09:16:36;;;;;;;;;;;19.90;59.90;;;;;;1489974;78;1531;-56
2023/11/10 09:18:38;;;;;;;;;;;19.90;60.00;;;;;;1493658;78;728;-59
2023/11/10 09:20:40;;;;;;;;;;;20.00;60.00;;;;;;1488569;78;764;-58
2023/11/10 09:22:42;;;;;;;;;;;19.90;60.00;;;;;;1495683;78;1155;-59
2023/11/10 09:24:45;;;;;;;;;;;20.00;60.00;;;;;;1495782;78;872;-59
2023/11/10 09:26:47;;;;;;;;;;;19.90;60.00;;;;;;1491565;78;720;-58
2023/11/10 09:28:50;;;;;;;;;;;20.00;60.00;;;;;;1495486;78;1949;-60
2023/11/10 09:30:53;;;;;;;;;;;19.90;60.00;;;;;;1489616;78;1495;-58
2023/11/10 09:32:56;;;;;;;;;;;19.90;60.10;;;;;;1493861;78;1161;-57
2023/11/10 09:34:57;;;;;;;;;;;20.00;60.10;;;;;;1492653;78;719;-59
2023/11/10 09:36:59;;;;;;;;;;;20.00;60.10;;;;;;1487235;78;696;-57
2023/11/10 09:39:01;;;;;;;;;;;19.90;60.10;;;;;;1495660;78;734;-57
2023/11/10 09:41:03;;;;;;;;;;;19.90;60.10;;;;;;1493595;78;824;-58
2023/11/10 09:43:05;;;;;;;;;;;20.00;60.10;;;;;;1494255;78;1176;-56
2023/11/10 09:45:07;;;;;;;;;;;19.90;60.10;;;;;;1487440;78;1503;-56
2023/11/10 09:47:09;;;;;;;;;;;20.00;60.10;;;;;;1495792;78;718;-60
2023/11/10 09:49:11;;;;;;;;;;;20.00;60.20;;;;;;1490938;78;1940;-59
2023/11/10 09:51:13;;;;;;;;;;;20.00;60.10;;;;;;1489574;78;706;-58
2023/11/10 09:53:15;;;;;;;;;;;20.00;60.20;;;;;;1489992;78;1087;-58
2023/11/10 09:55:17;;;;;;;;;;;20.00;60.20;;;;;;1491729;78;702;-59
2023/11/10 09:57:19;;;;;;;;;;;20.00;60.10;;;;;;1496922;78;666;-58
2023/11/10 09:59:25;;;;;;;;;;;20.00;60.20;;;;;;1499314;78;1214;-59
2023/11/10 10:01:25;;;;;;;;;;;20.00;60.20;;;;;;1490937;78;1720;-58
2023/11/10 10:03:28;;;;;;;;;;;20.00;60.20;;;;;;1496572;78;1126;-57
2023/11/10 10:05:30;;;;;;;;;;;20.00;60.20;;;;;;1497497;78;665;-58
2023/11/10 10:07:32;;;;;;;;;;;19.90;60.20;;;;;;1487959;78;678;-55
2023/11/10 10:09:34;;;;;;;;;;;20.00;60.20;;;;;;1488745;78;1935;-57
2023/11/10 10:11:36;;;;;;;;;;;20.00;60.20;;;;;;1490540;78;1178;-61
2023/11/10 10:13:41;;;;;;;;;;;19.90;60.20;;;;;;1496700;78;1509;-55
2023/11/10 10:15:43;;;;;;;;;;;20.00;60.20;;;;;;1490830;78;814;-58
2023/11/10 10:17:45;;;;;;;;;;;20.00;60.20;;;;;;1496619;78;787;-55
2023/11/10 10:19:49;;;;;;;;;;;20.00;60.20;;;;;;1494410;78;733;-60
2023/11/10 10:21:52;;;;;;;;;;;20.00;60.20;;;;;;1493901;78;1692;-55
2023/11/10 10:23:54;;;;;;;;;;;20.00;60.20;;;;;;1490729;78;711;-56
2023/11/10 10:25:56;;;;;;;;;;;20.00;60.20;;;;;;1490760;78;749;-59
2023/11/10 10:27:57;;;;;;;;;;;20.00;60.10;;;;;;1494005;78;1582;-57
2023/11/10 10:30:00;;;;;;;;;;;19.90;60.20;;;;;;1490644;78;1940;-59
2023/11/10 10:32:03;;;;;;;;;;;19.90;60.10;;;;;;1492441;78;1090;-57
2023/11/10 10:34:06;;;;;;;;;;;20.00;60.10;;;;;;1493982;78;866;-57
2023/11/10 10:36:08;;;;;;;;;;;20.00;60.10;;;;;;1487942;78;764;-58
2023/11/10 10:38:10;;;;;;;;;;;19.90;60.10;;;;;;1489604;78;677;-57
2023/11/10 10:40:14;;;;;;;;;;;20.00;60.10;;;;;;1491495;78;692;-60
2023/11/10 10:42:15;;;;;;;;;;;20.00;60.10;;;;;;1492636;78;1680;-58
2023/11/10 10:44:19;;;;;;;;;;;20.00;60.10;;;;;;1491530;78;694;-57
2023/11/10 10:46:21;;;;;;;;;;;20.00;60.10;;;;;;1497372;78;813;-57
2023/11/10 10:48:23;;;;;;;;;;;20.00;60.10;;;;;;1496431;78;711;-59
2023/11/10 10:50:26;;;;;;;;;;;19.90;60.10;;;;;;1497272;78;1944;-58
2023/11/10 10:52:28;;;;;;;;;;;20.00;60.10;;;;;;1495003;78;1111;-57
2023/11/10 10:54:30;;;;;;;;;;;19.90;60.10;;;;;;1492221;78;704;-56
2023/11/10 10:56:34;;;;;;;;;;;20.00;60.20;;;;;;1493113;78;1367;-56
2023/11/10 10:58:36;;;;;;;;;;;20.00;60.10;;;;;;1497946;78;1800;-56
2023/11/10 11:00:38;;;;;;;;;;;20.00;60.10;;;;;;1493158;78;723;-59
2023/11/10 11:02:45;;;;;;;;;;;20.00;60.10;;;;;;1501762;78;1094;-58
2023/11/10 11:04:55;;;;;;;;;;;20.00;60.10;;;;;;1494353;78;1644;-58
2023/11/10 11:07:13;;;;;;;;;;;20.00;60.10;;;;;;1499393;78;1223;-59
2023/11/10 11:09:19;;;;;;;;;;;20.00;60.10;;;;;;1492739;78;1945;-60
2023/11/10 11:11:38;;;;;;;;;;;20.00;60.10;;;;;;1492408;78;1595;-59
2023/11/10 11:13:54;;;;;;;;;;;20.00;60.10;;;;;;1493356;78;938;-59
2023/11/10 11:16:00;;;;;;;;;;;20.00;60.10;;;;;;1488317;78;708;-60
2023/11/10 11:18:19;;;;;;;;;;;20.00;60.10;;;;;;1486292;78;909;-58
2023/11/10 11:20:20;;;;;;;;;;;20.00;60.10;;;;;;1497305;77;1903;-60
2023/11/10 11:22:22;;;;;;;;;;;20.00;60.10;;;;;;1488491;78;1114;-60
2023/11/10 11:24:25;;;;;;;;;;;20.00;60.10;;;;;;1491269;78;1167;-59
2023/11/10 11:26:27;;;;;;;;;;;20.00;60.10;;;;;;1496215;78;776;-59
2023/11/10 11:28:39;;;;;;;;;;;20.00;60.10;;;;;;1492445;78;756;-59
2023/11/10 11:30:40;;;;;;;;;;;20.00;60.10;;;;;;1485572;78;1914;-60
2023/11/10 11:32:43;;;;;;;;;;;20.00;60.10;;;;;;1498967;78;1168;-59
2023/11/10 11:34:54;;;;;;;;;;;20.00;60.10;;;;;;1492286;78;708;-60
2023/11/10 11:36:57;;;;;;;;;;;20.00;60.10;;;;;;1491113;78;796;-58
2023/11/10 11:39:00;;;;;;;;;;;20.00;60.10;;;;;;1492898;78;1556;-58
2023/11/10 11:41:05;;;;;;;;;;;20.00;60.10;;;;;;1495473;78;716;-59
2023/11/10 11:43:10;;;;;;;;;;;20.00;60.10;;;;;;1490921;78;1182;-60
2023/11/10 11:45:12;;;;;;;;;;;20.00;60.10;;;;;;1490658;78;742;-60
2023/11/10 11:47:14;;;;;;;;;;;20.00;60.10;;;;;;1487703;78;796;-59
2023/11/10 11:49:16;;;;;;;;;;;20.00;60.10;;;;;;1463359;80;1208;-59
2023/11/10 11:51:18;;;;;;;;;;;20.00;60.10;;;;;;1500965;78;1926;-58
2023/11/10 11:53:22;;;;;;;;;;;20.00;60.10;;;;;;1489544;78;1113;-59
2023/11/10 11:55:24;;;;;;;;;;;20.00;60.10;;;;;;1488762;78;842;-61
2023/11/10 11:57:26;;;;;;;;;;;20.00;60.20;;;;;;1497715;78;770;-59
2023/11/10 11:59:28;;;;;;;;;;;20.00;60.20;;;;;;1504961;78;743;-60
2023/11/10 12:01:30;;;;;;;;;;;20.00;60.20;;;;;;1495709;78;1100;-59
2023/11/10 12:03:33;;;;;;;;;;;20.00;60.20;;;;;;1463158;80;944;-61
2023/11/10 12:05:35;;;;;;;;;;;19.90;60.20;;;;;;1494884;78;1497;-61
2023/11/10 12:07:37;;;;;;;;;;;20.00;60.30;;;;;;1496854;78;769;-60
2023/11/10 12:09:39;;;;;;;;;;;20.00;60.20;;;;;;1486622;78;1944;-60
2023/11/10 12:11:43;;;;;;;;;;;20.00;60.30;;;;;;1488641;78;1129;-58